createdAt,value
2022-10-13T00:00:26.806Z,7.21
2022-10-13T00:01:26.749Z,7.16
2022-10-13T00:02:26.711Z,7.09
2022-10-13T00:03:26.710Z,7.11
2022-10-13T00:04:26.746Z,7.15
2022-10-13T00:05:26.669Z,7.15
2022-10-13T00:06:26.656Z,7.09
2022-10-13T00:07:26.726Z,7.15
2022-10-13T00:08:26.644Z,7.14
2022-10-13T00:09:26.624Z,7.16
2022-10-13T00:10:26.615Z,7.07
2022-10-13T00:11:26.601Z,7.08
2022-10-13T00:12:26.599Z,7.09
2022-10-13T00:13:26.599Z,7.08
2022-10-13T00:14:26.569Z,7.14
2022-10-13T00:15:26.559Z,7.00
2022-10-13T00:16:26.580Z,7.08
2022-10-13T00:17:26.538Z,7.08
2022-10-13T00:18:26.580Z,7.05
2022-10-13T00:19:26.622Z,7.08
2022-10-13T00:20:26.504Z,7.12
2022-10-13T00:21:26.500Z,7.08
2022-10-13T00:22:26.485Z,6.97
2022-10-13T00:23:26.473Z,7.11
2022-10-13T00:24:26.537Z,7.08
2022-10-13T00:25:26.470Z,7.14
2022-10-13T00:26:26.449Z,7.12
2022-10-13T00:27:26.431Z,7.05
2022-10-13T00:28:26.445Z,7.14
2022-10-13T00:29:26.408Z,7.14
2022-10-13T00:30:26.457Z,7.12
2022-10-13T00:31:26.408Z,7.11
2022-10-13T00:32:26.400Z,7.14
2022-10-13T00:33:26.363Z,7.09
2022-10-13T00:34:26.357Z,7.14
2022-10-13T00:35:26.347Z,7.18
2022-10-13T00:36:26.410Z,7.18
2022-10-13T00:37:26.320Z,7.11
2022-10-13T00:38:26.314Z,7.16
2022-10-13T00:39:26.303Z,7.15
2022-10-13T00:40:26.291Z,7.09
2022-10-13T00:41:26.279Z,7.16
2022-10-13T00:42:26.364Z,7.19
2022-10-13T00:43:26.259Z,7.09
2022-10-13T00:44:26.250Z,7.12
2022-10-13T00:45:26.235Z,7.12
2022-10-13T00:46:26.230Z,7.14
2022-10-13T00:47:26.223Z,7.08
2022-10-13T00:48:26.483Z,7.14
2022-10-13T00:49:26.200Z,7.01
2022-10-13T00:50:26.192Z,7.16
2022-10-13T00:51:26.183Z,7.15
2022-10-13T00:52:26.164Z,7.15
2022-10-13T00:53:26.152Z,6.99
2022-10-13T00:54:26.265Z,7.04
2022-10-13T00:55:26.126Z,6.96
2022-10-13T00:56:26.126Z,7.15
2022-10-13T00:57:26.103Z,7.12
2022-10-13T00:58:26.097Z,7.11
2022-10-13T00:59:26.083Z,7.14
2022-10-13T01:00:26.138Z,7.12
2022-10-13T01:01:26.062Z,7.15
2022-10-13T01:02:26.068Z,7.19
2022-10-13T01:03:26.053Z,7.14
2022-10-13T01:04:26.056Z,7.12
2022-10-13T01:05:26.028Z,7.12
2022-10-13T01:06:26.088Z,7.09
2022-10-13T01:07:25.999Z,7.09
2022-10-13T01:08:25.997Z,7.01
2022-10-13T01:09:25.977Z,7.09
2022-10-13T01:10:25.963Z,7.14
2022-10-13T01:11:25.954Z,7.12
2022-10-13T01:12:25.996Z,7.00
2022-10-13T01:13:25.942Z,6.96
2022-10-13T01:14:25.936Z,6.99
2022-10-13T01:15:25.910Z,7.09
2022-10-13T01:16:25.900Z,7.05
2022-10-13T01:17:25.889Z,7.16
2022-10-13T01:18:25.937Z,7.08
2022-10-13T01:19:25.870Z,7.07
2022-10-13T01:20:25.893Z,7.08
2022-10-13T01:21:25.851Z,7.07
2022-10-13T01:22:25.836Z,7.04
2022-10-13T01:23:25.825Z,7.11
2022-10-13T01:24:25.911Z,7.08
2022-10-13T01:25:25.803Z,7.08
2022-10-13T01:26:25.795Z,7.08
2022-10-13T01:27:25.784Z,7.05
2022-10-13T01:28:25.836Z,7.11
2022-10-13T01:29:25.771Z,7.09
2022-10-13T01:30:25.835Z,7.19
2022-10-13T01:31:25.749Z,7.18
2022-10-13T01:32:25.728Z,7.21
2022-10-13T01:33:25.715Z,7.11
2022-10-13T01:34:25.704Z,7.12
2022-10-13T01:35:25.699Z,6.90
2022-10-13T01:36:25.922Z,6.89
2022-10-13T01:37:25.676Z,6.73
2022-10-13T01:38:25.661Z,6.75
2022-10-13T01:39:25.664Z,6.72
2022-10-13T01:40:25.642Z,6.78
2022-10-13T01:41:25.630Z,6.86
2022-10-13T01:42:25.699Z,6.72
2022-10-13T01:43:25.610Z,6.65
2022-10-13T01:44:25.598Z,6.73
2022-10-13T01:45:25.597Z,6.73
2022-10-13T01:46:25.580Z,6.65
2022-10-13T01:47:25.564Z,6.72
2022-10-13T01:48:25.592Z,6.64
2022-10-13T01:49:25.546Z,6.51
2022-10-13T01:50:25.533Z,6.60
2022-10-13T01:51:25.524Z,6.64
2022-10-13T01:52:25.543Z,6.58
2022-10-13T01:53:25.497Z,6.63
2022-10-13T01:54:25.569Z,6.68
2022-10-13T01:55:25.478Z,6.64
2022-10-13T01:56:25.468Z,6.55
2022-10-13T01:57:25.459Z,6.69
2022-10-13T01:58:25.448Z,6.76
2022-10-13T01:59:25.447Z,6.76
2022-10-13T02:00:25.507Z,6.76
2022-10-13T02:01:25.414Z,6.69
2022-10-13T02:02:25.402Z,6.75
2022-10-13T02:03:25.415Z,6.76
2022-10-13T02:04:25.392Z,6.81
2022-10-13T02:05:25.371Z,6.63
2022-10-13T02:06:25.357Z,6.78
2022-10-13T02:07:25.422Z,6.64
2022-10-13T02:08:25.365Z,6.57
2022-10-13T02:09:25.328Z,6.68
2022-10-13T02:10:25.330Z,6.61
2022-10-13T02:11:25.315Z,6.55
2022-10-13T02:12:25.297Z,6.54
2022-10-13T02:13:25.295Z,6.45
2022-10-13T02:14:25.277Z,6.42
2022-10-13T02:15:25.266Z,6.45
2022-10-13T02:16:25.270Z,6.45
2022-10-13T02:17:25.242Z,6.39
2022-10-13T02:18:25.231Z,6.33
2022-10-13T02:19:25.220Z,6.33
2022-10-13T02:20:25.221Z,6.20
2022-10-13T02:21:25.213Z,6.24
2022-10-13T02:22:25.192Z,6.16
2022-10-13T02:23:25.175Z,6.45
2022-10-13T02:24:25.195Z,6.39
2022-10-13T02:25:25.168Z,6.45
2022-10-13T02:26:25.211Z,6.36
2022-10-13T02:27:25.142Z,6.32
2022-10-13T02:28:25.162Z,6.40
2022-10-13T02:29:25.115Z,6.38
2022-10-13T02:30:25.115Z,6.46
2022-10-13T02:31:25.091Z,6.36
2022-10-13T02:32:25.132Z,6.28
2022-10-13T02:33:25.080Z,6.39
2022-10-13T02:34:25.061Z,6.36
2022-10-13T02:35:25.047Z,6.39
2022-10-13T02:36:25.037Z,6.45
2022-10-13T02:37:25.029Z,6.45
2022-10-13T02:38:25.098Z,6.45
2022-10-13T02:39:25.015Z,6.36
2022-10-13T02:40:25.015Z,6.36
2022-10-13T02:41:24.983Z,6.35
2022-10-13T02:42:24.985Z,6.33
2022-10-13T02:43:24.961Z,6.20
2022-10-13T02:44:25.008Z,6.25
2022-10-13T02:45:24.943Z,6.17
2022-10-13T02:46:24.932Z,6.19
2022-10-13T02:47:24.921Z,6.30
2022-10-13T02:48:24.921Z,6.21
2022-10-13T02:49:24.894Z,6.35
2022-10-13T02:50:24.952Z,6.19
2022-10-13T02:51:24.879Z,6.20
2022-10-13T02:52:24.876Z,6.39
2022-10-13T02:53:24.855Z,6.33
2022-10-13T02:54:24.862Z,6.39
2022-10-13T02:55:24.843Z,6.43
2022-10-13T02:56:24.881Z,6.46
2022-10-13T02:57:24.811Z,6.50
2022-10-13T02:58:24.801Z,6.43
2022-10-13T02:59:24.789Z,6.45
2022-10-13T03:00:24.778Z,6.51
2022-10-13T03:01:24.775Z,6.53
2022-10-13T03:02:24.780Z,6.60
2022-10-13T03:03:24.761Z,6.58
2022-10-13T03:04:24.735Z,6.61
2022-10-13T03:05:24.721Z,6.58
2022-10-13T03:06:24.717Z,6.68
2022-10-13T03:07:24.774Z,6.63
2022-10-13T03:08:24.691Z,6.64
2022-10-13T03:09:24.693Z,6.68
2022-10-13T03:10:24.681Z,6.54
2022-10-13T03:11:24.674Z,6.54
2022-10-13T03:12:24.736Z,6.53
2022-10-13T03:13:24.671Z,6.57
2022-10-13T03:14:24.629Z,6.55
2022-10-13T03:15:24.613Z,6.63
2022-10-13T03:16:24.607Z,6.79
2022-10-13T03:17:24.609Z,6.64
2022-10-13T03:18:24.593Z,6.76
2022-10-13T03:19:24.637Z,6.75
2022-10-13T03:20:24.588Z,6.73
2022-10-13T03:21:24.554Z,6.65
2022-10-13T03:22:24.541Z,6.69
2022-10-13T03:23:24.531Z,6.76
2022-10-13T03:24:24.522Z,6.86
2022-10-13T03:25:24.581Z,6.90
2022-10-13T03:26:24.521Z,6.72
2022-10-13T03:27:24.501Z,6.81
2022-10-13T03:28:24.542Z,6.81
2022-10-13T03:29:24.469Z,6.75
2022-10-13T03:30:24.455Z,6.83
2022-10-13T03:31:24.473Z,6.91
2022-10-13T03:32:24.446Z,6.91
2022-10-13T03:33:24.434Z,6.81
2022-10-13T03:34:24.422Z,6.82
2022-10-13T03:35:24.418Z,6.87
2022-10-13T03:36:24.406Z,6.90
2022-10-13T03:37:24.377Z,6.78
2022-10-13T03:38:24.397Z,6.79
2022-10-13T03:39:24.358Z,6.87
2022-10-13T03:40:24.350Z,6.82
2022-10-13T03:41:24.340Z,6.83
2022-10-13T03:42:24.337Z,6.76
2022-10-13T03:43:24.315Z,6.86
2022-10-13T03:44:24.365Z,6.86
2022-10-13T03:45:24.294Z,6.89
2022-10-13T03:46:24.285Z,6.90
2022-10-13T03:47:24.282Z,6.93
2022-10-13T03:48:24.274Z,6.93
2022-10-13T03:49:24.248Z,6.93
2022-10-13T03:50:24.305Z,6.94
2022-10-13T03:51:24.235Z,6.99
2022-10-13T03:52:24.221Z,6.91
2022-10-13T03:53:24.226Z,6.93
2022-10-13T03:54:24.196Z,6.94
2022-10-13T03:55:24.188Z,6.99
2022-10-13T03:56:24.244Z,6.89
2022-10-13T03:57:24.181Z,6.93
2022-10-13T03:58:24.160Z,6.94
2022-10-13T03:59:24.146Z,6.97
2022-10-13T04:00:24.333Z,6.90
2022-10-13T04:01:24.164Z,6.90
2022-10-13T04:02:24.115Z,6.87
2022-10-13T04:03:24.196Z,6.78
2022-10-13T04:04:24.089Z,6.86
2022-10-13T04:05:24.080Z,6.91
2022-10-13T04:06:24.084Z,6.73
2022-10-13T04:07:24.057Z,6.76
2022-10-13T04:08:24.044Z,6.73
2022-10-13T04:09:24.127Z,6.64
2022-10-13T04:10:24.023Z,6.83
2022-10-13T04:11:24.017Z,6.71
2022-10-13T04:12:24.335Z,6.60
2022-10-13T04:13:23.994Z,6.63
2022-10-13T04:14:23.988Z,6.69
2022-10-13T04:15:24.043Z,6.65
2022-10-13T04:16:24.034Z,6.60
2022-10-13T04:17:23.948Z,6.61
2022-10-13T04:18:23.936Z,6.63
2022-10-13T04:19:23.938Z,6.53
2022-10-13T04:20:23.915Z,6.54
2022-10-13T04:21:23.985Z,6.46
2022-10-13T04:22:23.906Z,6.45
2022-10-13T04:23:23.882Z,6.51
2022-10-13T04:24:23.887Z,6.43
2022-10-13T04:25:23.994Z,6.43
2022-10-13T04:26:23.854Z,6.42
2022-10-13T04:27:23.842Z,6.35
2022-10-13T04:28:23.902Z,6.33
2022-10-13T04:29:23.820Z,6.36
2022-10-13T04:30:23.825Z,6.21
2022-10-13T04:31:23.797Z,6.27
2022-10-13T04:32:23.883Z,6.32
2022-10-13T04:33:23.783Z,6.20
2022-10-13T04:34:23.767Z,6.16
2022-10-13T04:35:23.756Z,6.20
2022-10-13T04:36:23.753Z,6.17
2022-10-13T04:37:23.737Z,6.28
2022-10-13T04:38:23.720Z,6.02
2022-10-13T04:39:23.783Z,6.27
2022-10-13T04:40:23.697Z,6.21
2022-10-13T04:41:23.705Z,6.19
2022-10-13T04:42:23.681Z,6.19
2022-10-13T04:43:23.670Z,6.21
2022-10-13T04:44:23.693Z,6.20
2022-10-13T04:45:23.660Z,6.25
2022-10-13T04:46:23.644Z,6.27
2022-10-13T04:47:23.640Z,6.24
2022-10-13T04:48:23.648Z,6.17
2022-10-13T04:49:23.607Z,6.24
2022-10-13T04:50:23.591Z,6.19
2022-10-13T04:51:23.640Z,6.35
2022-10-13T04:52:23.571Z,6.45
2022-10-13T04:53:23.575Z,6.33
2022-10-13T04:54:23.623Z,6.32
2022-10-13T04:55:23.539Z,6.33
2022-10-13T04:56:23.530Z,6.39
2022-10-13T04:57:23.525Z,6.35
2022-10-13T04:58:23.512Z,6.35
2022-10-13T04:59:23.634Z,6.38
2022-10-13T05:00:23.544Z,6.43
2022-10-13T05:01:23.477Z,6.53
2022-10-13T05:02:23.464Z,6.40
2022-10-13T05:03:23.465Z,6.38
2022-10-13T05:04:23.470Z,6.25
2022-10-13T05:05:23.509Z,6.32
2022-10-13T05:06:23.423Z,6.32
2022-10-13T05:07:23.407Z,6.17
2022-10-13T05:08:23.414Z,6.25
2022-10-13T05:09:23.396Z,6.36
2022-10-13T05:10:23.381Z,6.20
2022-10-13T05:11:23.367Z,6.32
2022-10-13T05:12:23.567Z,6.24
2022-10-13T05:13:23.457Z,6.25
2022-10-13T05:14:23.347Z,6.24
2022-10-13T05:15:23.323Z,6.40
2022-10-13T05:16:23.317Z,6.16
2022-10-13T05:17:23.309Z,6.30
2022-10-13T05:18:23.291Z,6.25
2022-10-13T05:19:23.293Z,6.35
2022-10-13T05:20:23.298Z,6.36
2022-10-13T05:21:23.256Z,6.42
2022-10-13T05:22:23.434Z,6.46
2022-10-13T05:23:23.297Z,6.42
2022-10-13T05:24:23.224Z,6.45
2022-10-13T05:25:23.228Z,6.28
2022-10-13T05:26:23.203Z,6.30
2022-10-13T05:27:23.234Z,6.35
2022-10-13T05:28:23.208Z,6.30
2022-10-13T05:29:23.273Z,6.42
2022-10-13T05:30:23.162Z,6.42
2022-10-13T05:31:23.261Z,6.48
2022-10-13T05:32:23.353Z,6.46
2022-10-13T05:33:23.129Z,6.50
2022-10-13T05:34:23.116Z,6.57
2022-10-13T05:35:23.177Z,6.30
2022-10-13T05:36:23.124Z,6.32
2022-10-13T05:37:23.098Z,6.28
2022-10-13T05:38:26.060Z,6.35
2022-10-13T05:39:23.067Z,6.33
2022-10-13T05:40:23.054Z,6.32
2022-10-13T05:41:23.137Z,6.13
2022-10-13T05:42:23.293Z,6.21
2022-10-13T05:43:23.025Z,6.27
2022-10-13T05:44:23.009Z,6.25
2022-10-13T05:45:22.999Z,6.25
2022-10-13T05:46:23.001Z,6.14
2022-10-13T05:47:23.055Z,6.19
2022-10-13T05:48:22.971Z,6.19
2022-10-13T05:49:22.957Z,6.24
2022-10-13T05:50:22.954Z,6.25
2022-10-13T05:51:22.940Z,6.36
2022-10-13T05:52:22.947Z,6.35
2022-10-13T05:53:22.980Z,6.45
2022-10-13T05:54:22.916Z,6.45
2022-10-13T05:55:22.890Z,6.38
2022-10-13T05:56:22.885Z,6.40
2022-10-13T05:57:22.886Z,6.45
2022-10-13T05:58:22.871Z,6.51
2022-10-13T05:59:26.929Z,6.46
2022-10-13T06:00:22.837Z,6.36
2022-10-13T06:01:22.865Z,6.46
2022-10-13T06:02:23.259Z,6.39
2022-10-13T06:03:22.817Z,6.38
2022-10-13T06:04:22.796Z,6.43
2022-10-13T06:05:22.791Z,6.51
2022-10-13T06:06:22.772Z,6.51
2022-10-13T06:07:22.766Z,6.42
2022-10-13T06:08:22.958Z,6.53
2022-10-13T06:09:22.745Z,6.53
2022-10-13T06:10:22.730Z,6.50
2022-10-13T06:11:22.724Z,6.50
2022-10-13T06:12:23.098Z,6.50
2022-10-13T06:13:22.699Z,6.54
2022-10-13T06:14:22.687Z,6.58
2022-10-13T06:15:27.843Z,6.51
2022-10-13T06:16:23.698Z,6.57
2022-10-13T06:17:22.691Z,6.68
2022-10-13T06:18:22.691Z,6.54
2022-10-13T06:19:22.637Z,6.65
2022-10-13T06:20:22.626Z,6.58
2022-10-13T06:21:22.616Z,6.58
2022-10-13T06:22:22.957Z,6.53
2022-10-13T06:23:22.589Z,6.50
2022-10-13T06:24:22.669Z,6.50
2022-10-13T06:25:22.568Z,6.63
2022-10-13T06:26:22.555Z,6.48
2022-10-13T06:27:22.549Z,6.43
2022-10-13T06:28:22.607Z,6.43
2022-10-13T06:29:22.527Z,6.39
2022-10-13T06:30:22.547Z,6.45
2022-10-13T06:31:22.503Z,6.43
2022-10-13T06:32:23.007Z,6.60
2022-10-13T06:33:22.494Z,6.65
2022-10-13T06:34:22.488Z,6.65
2022-10-13T06:35:22.461Z,6.73
2022-10-13T06:36:22.509Z,6.63
2022-10-13T06:37:27.079Z,6.76
2022-10-13T06:38:23.427Z,6.76
2022-10-13T06:39:22.417Z,6.82
2022-10-13T06:40:22.443Z,6.72
2022-10-13T06:41:22.398Z,6.82
2022-10-13T06:42:22.901Z,6.72
2022-10-13T06:43:24.943Z,6.86
2022-10-13T06:44:23.370Z,6.83
2022-10-13T06:45:22.354Z,6.86
2022-10-13T06:46:22.347Z,6.79
2022-10-13T06:47:22.331Z,6.68
2022-10-13T06:48:22.514Z,6.51
2022-10-13T06:49:22.309Z,6.48
2022-10-13T06:50:22.304Z,6.50
2022-10-13T06:51:22.291Z,6.51
2022-10-13T06:52:22.484Z,6.57
2022-10-13T06:53:22.275Z,6.50
2022-10-13T06:54:22.305Z,6.39
2022-10-13T06:55:22.260Z,6.39
2022-10-13T06:56:22.255Z,6.48
2022-10-13T06:57:22.227Z,6.45
2022-10-13T06:58:22.217Z,6.54
2022-10-13T06:59:22.202Z,6.54
2022-10-13T07:00:22.304Z,6.68
2022-10-13T07:01:22.183Z,6.94
2022-10-13T07:02:22.641Z,7.58
2022-10-13T07:03:22.160Z,8.13
2022-10-13T07:04:22.150Z,8.52
2022-10-13T07:05:22.149Z,8.91
2022-10-13T07:06:22.153Z,9.19
2022-10-13T07:07:22.116Z,9.41
2022-10-13T07:08:22.105Z,9.83
2022-10-13T07:09:22.096Z,10.14
2022-10-13T07:10:22.102Z,10.07
2022-10-13T07:11:22.073Z,10.06
2022-10-13T07:12:22.556Z,10.20
2022-10-13T07:14:22.040Z,10.28
2022-10-13T07:15:22.030Z,10.70
2022-10-13T07:16:22.018Z,10.66
2022-10-13T07:17:22.574Z,10.99
2022-10-13T07:18:22.069Z,11.09
2022-10-13T07:19:22.003Z,11.31
2022-10-13T07:20:22.064Z,11.20
2022-10-13T07:21:21.965Z,11.30
2022-10-13T07:22:21.959Z,11.20
2022-10-13T07:23:21.942Z,11.27
2022-10-13T07:24:21.986Z,11.53
2022-10-13T07:25:21.936Z,11.57
2022-10-13T07:26:21.914Z,11.54
2022-10-13T07:27:22.085Z,11.77
2022-10-13T07:28:21.941Z,11.93
2022-10-13T07:29:21.880Z,11.56
2022-10-13T07:30:21.957Z,11.70
2022-10-13T07:31:21.871Z,11.74
2022-10-13T07:32:21.843Z,11.33
2022-10-13T07:33:21.835Z,11.69
2022-10-13T07:34:21.824Z,11.90
2022-10-13T07:35:23.197Z,12.23
2022-10-13T07:36:21.818Z,12.11
2022-10-13T07:37:22.159Z,11.70
2022-10-13T07:38:21.783Z,11.77
2022-10-13T07:39:21.769Z,11.81
2022-10-13T07:40:21.851Z,11.84
2022-10-13T07:41:21.753Z,11.39
2022-10-13T07:42:21.743Z,11.13
2022-10-13T07:43:21.722Z,10.87
2022-10-13T07:44:21.733Z,10.42
2022-10-13T07:45:21.701Z,10.36
2022-10-13T07:46:21.697Z,10.55
2022-10-13T07:47:21.970Z,10.43
2022-10-13T07:49:21.655Z,10.26
2022-10-13T07:50:21.642Z,10.38
2022-10-13T07:51:21.651Z,10.47
2022-10-13T07:52:22.109Z,10.58
2022-10-13T07:53:21.618Z,11.21
2022-10-13T07:54:23.855Z,11.44
2022-10-13T07:55:22.590Z,11.63
2022-10-13T07:56:21.582Z,11.56
2022-10-13T07:57:21.678Z,11.69
2022-10-13T07:58:21.557Z,11.81
2022-10-13T07:59:21.545Z,11.87
2022-10-13T08:00:21.602Z,11.69
2022-10-13T08:01:21.591Z,11.78
2022-10-13T08:02:21.920Z,12.15
2022-10-13T08:03:21.517Z,12.30
2022-10-13T08:04:21.491Z,12.25
2022-10-13T08:05:21.483Z,12.13
2022-10-13T08:06:21.534Z,12.11
2022-10-13T08:07:21.806Z,11.88
2022-10-13T08:08:21.445Z,11.63
2022-10-13T08:09:21.445Z,11.94
2022-10-13T08:10:21.423Z,11.96
2022-10-13T08:11:21.416Z,11.69
2022-10-13T08:12:21.860Z,11.66
2022-10-13T08:13:21.391Z,11.81
2022-10-13T08:14:21.377Z,12.03
2022-10-13T08:15:21.381Z,12.07
2022-10-13T08:16:21.413Z,12.15
2022-10-13T08:17:51.941Z,12.21
2022-10-13T08:18:21.339Z,12.54
2022-10-13T08:19:21.489Z,12.56
2022-10-13T08:20:21.328Z,12.25
2022-10-13T08:21:45.791Z,12.25
2022-10-13T08:22:27.287Z,12.25
2022-10-13T08:23:22.279Z,12.11
2022-10-13T08:24:21.276Z,11.56
2022-10-13T08:25:21.261Z,11.56
2022-10-13T08:26:21.273Z,11.56
2022-10-13T08:27:21.812Z,11.57
2022-10-13T08:28:21.299Z,11.56
2022-10-13T08:29:23.008Z,11.31
2022-10-13T08:30:21.470Z,11.27
2022-10-13T08:31:21.448Z,11.03
2022-10-13T08:32:21.552Z,10.93
2022-10-13T08:33:21.196Z,10.73
2022-10-13T08:34:21.166Z,10.69
2022-10-13T08:35:21.160Z,10.51
2022-10-13T08:36:21.149Z,10.34
2022-10-13T08:37:21.129Z,10.35
2022-10-13T08:38:21.114Z,10.20
2022-10-13T08:39:21.198Z,10.04
2022-10-13T08:40:21.098Z,10.02
2022-10-13T08:41:21.240Z,9.89
2022-10-13T08:42:21.644Z,9.78
2022-10-13T08:43:21.061Z,9.96
2022-10-13T08:45:40.427Z,10.09
2022-10-13T08:46:22.044Z,9.95
2022-10-13T08:47:21.016Z,10.09
2022-10-13T08:48:21.039Z,9.99
2022-10-13T08:49:20.990Z,10.11
2022-10-13T08:50:20.993Z,10.04
2022-10-13T08:51:21.044Z,9.98
2022-10-13T08:52:21.249Z,10.02
2022-10-13T08:53:20.951Z,10.09
2022-10-13T08:54:20.950Z,10.06
2022-10-13T08:55:20.938Z,10.02
2022-10-13T08:56:20.921Z,9.98
2022-10-13T08:57:21.221Z,9.95
2022-10-13T08:58:20.894Z,10.02
2022-10-13T08:59:20.883Z,10.07
2022-10-13T09:00:20.886Z,10.17
2022-10-13T09:01:20.901Z,10.13
2022-10-13T09:02:20.848Z,10.11
2022-10-13T09:03:20.894Z,10.25
2022-10-13T09:04:20.982Z,10.17
2022-10-13T09:05:20.815Z,10.46
2022-10-13T09:06:20.882Z,10.43
2022-10-13T09:07:21.186Z,10.46
2022-10-13T09:08:20.780Z,10.60
2022-10-13T09:09:20.863Z,10.57
2022-10-13T09:10:20.761Z,10.47
2022-10-13T09:11:20.743Z,10.44
2022-10-13T09:12:21.087Z,10.51
2022-10-13T09:13:20.724Z,10.55
2022-10-13T09:14:20.715Z,10.58
2022-10-13T09:15:20.809Z,10.65
2022-10-13T09:16:20.691Z,10.83
2022-10-13T09:17:20.683Z,11.13
2022-10-13T09:18:20.691Z,11.23
2022-10-13T09:19:20.661Z,11.24
2022-10-13T09:20:20.680Z,11.38
2022-10-13T09:21:20.718Z,11.46
2022-10-13T09:22:20.871Z,11.57
2022-10-13T09:23:20.722Z,11.44
2022-10-13T09:24:20.608Z,11.51
2022-10-13T09:25:20.601Z,11.69
2022-10-13T09:26:20.583Z,11.96
2022-10-13T09:27:20.643Z,12.04
2022-10-13T09:28:20.596Z,12.25
2022-10-13T09:29:20.558Z,12.58
2022-10-13T09:30:20.540Z,12.74
2022-10-13T09:31:20.532Z,12.74
2022-10-13T09:32:20.785Z,12.73
2022-10-13T09:33:20.578Z,12.84
2022-10-13T09:34:20.493Z,12.56
2022-10-13T09:35:20.484Z,12.54
2022-10-13T09:36:20.631Z,12.43
2022-10-13T09:37:20.465Z,12.22
2022-10-13T09:38:20.450Z,11.84
2022-10-13T09:39:20.515Z,11.93
2022-10-13T09:40:20.434Z,12.23
2022-10-13T09:41:20.419Z,12.36
2022-10-13T09:42:20.711Z,12.11
2022-10-13T09:43:20.424Z,12.01
2022-10-13T09:44:24.243Z,11.97
2022-10-13T09:45:21.373Z,11.84
2022-10-13T09:46:20.379Z,11.94
2022-10-13T09:47:20.356Z,11.93
2022-10-13T09:48:20.348Z,11.94
2022-10-13T09:49:20.338Z,11.94
2022-10-13T09:50:20.322Z,12.11
2022-10-13T09:51:20.313Z,12.29
2022-10-13T09:52:20.623Z,12.36
2022-10-13T09:53:20.288Z,12.30
2022-10-13T09:54:20.291Z,12.30
2022-10-13T09:55:20.479Z,12.38
2022-10-13T09:56:20.255Z,12.26
2022-10-13T09:57:20.242Z,12.30
2022-10-13T09:58:20.241Z,12.54
2022-10-13T09:59:20.239Z,12.71
2022-10-13T10:00:20.213Z,12.81
2022-10-13T10:01:20.203Z,12.80
2022-10-13T10:02:22.398Z,12.41
2022-10-13T10:03:20.186Z,12.41
2022-10-13T10:04:20.273Z,12.40
2022-10-13T10:05:20.167Z,12.36
2022-10-13T10:06:21.689Z,12.23
2022-10-13T10:07:20.456Z,12.46
2022-10-13T10:08:22.590Z,12.41
2022-10-13T10:09:21.139Z,12.34
2022-10-13T10:10:20.123Z,12.63
2022-10-13T10:11:20.097Z,12.69
2022-10-13T10:12:22.868Z,12.87
2022-10-13T10:13:21.069Z,12.87
2022-10-13T10:14:20.067Z,12.91
2022-10-13T10:15:20.071Z,12.92
2022-10-13T10:16:20.100Z,12.92
2022-10-13T10:17:20.477Z,12.85
2022-10-13T10:18:20.019Z,12.96
2022-10-13T10:19:20.008Z,13.29
2022-10-13T10:20:19.996Z,13.43
2022-10-13T10:21:20.001Z,13.48
2022-10-13T10:22:20.039Z,13.14
2022-10-13T10:23:19.968Z,13.04
2022-10-13T10:24:19.983Z,13.13
2022-10-13T10:25:19.947Z,13.32
2022-10-13T10:26:23.629Z,13.09
2022-10-13T10:28:20.036Z,12.77
2022-10-13T10:29:19.898Z,12.69
2022-10-13T10:30:19.896Z,12.71
2022-10-13T10:31:19.877Z,12.81
2022-10-13T10:32:20.154Z,12.98
2022-10-13T10:33:19.858Z,12.94
2022-10-13T10:34:19.896Z,12.85
2022-10-13T10:35:19.830Z,12.74
2022-10-13T10:36:19.833Z,12.67
2022-10-13T10:37:22.797Z,12.58
2022-10-13T10:38:19.821Z,12.62
2022-10-13T10:39:19.791Z,12.66
2022-10-13T10:40:19.833Z,12.85
2022-10-13T10:41:19.769Z,12.98
2022-10-13T10:42:20.067Z,12.85
2022-10-13T10:43:19.744Z,12.96
2022-10-13T10:44:19.754Z,12.77
2022-10-13T10:45:19.726Z,12.87
2022-10-13T10:46:19.767Z,12.76
2022-10-13T10:47:22.560Z,12.69
2022-10-13T10:48:19.706Z,12.71
2022-10-13T10:49:19.682Z,12.77
2022-10-13T10:50:19.671Z,12.66
2022-10-13T10:51:19.656Z,12.59
2022-10-13T10:52:19.710Z,12.56
2022-10-13T10:53:19.636Z,12.62
2022-10-13T10:54:19.639Z,12.70
2022-10-13T10:55:19.617Z,12.95
2022-10-13T10:56:19.643Z,12.92
2022-10-13T10:57:19.930Z,12.92
2022-10-13T10:58:19.626Z,12.89
2022-10-13T10:59:19.571Z,13.03
2022-10-13T11:00:19.647Z,13.07
2022-10-13T11:01:19.717Z,12.80
2022-10-13T11:02:19.789Z,12.79
2022-10-13T11:03:19.529Z,12.69
2022-10-13T11:04:19.583Z,12.84
2022-10-13T11:05:19.508Z,12.94
2022-10-13T11:06:19.519Z,12.98
2022-10-13T11:07:19.490Z,13.14
2022-10-13T11:08:19.476Z,13.22
2022-10-13T11:09:19.520Z,13.32
2022-10-13T11:10:19.451Z,13.38
2022-10-13T11:11:23.333Z,13.38
2022-10-13T11:12:20.795Z,13.32
2022-10-13T11:13:19.425Z,13.21
2022-10-13T11:14:19.414Z,12.96
2022-10-13T11:15:19.526Z,12.95
2022-10-13T11:16:19.390Z,12.89
2022-10-13T11:17:19.388Z,13.01
2022-10-13T11:18:21.953Z,13.01
2022-10-13T11:19:19.359Z,12.95
2022-10-13T11:20:19.488Z,12.63
2022-10-13T11:21:19.337Z,12.62
2022-10-13T11:22:19.738Z,12.59
2022-10-13T11:23:19.320Z,12.54
2022-10-13T11:24:19.310Z,12.66
2022-10-13T11:25:19.300Z,12.96
2022-10-13T11:26:19.292Z,13.06
2022-10-13T11:27:19.272Z,13.43
2022-10-13T11:28:19.365Z,13.43
2022-10-13T11:29:19.263Z,13.39
2022-10-13T11:30:19.310Z,13.38
2022-10-13T11:31:19.228Z,13.53
2022-10-13T11:32:19.463Z,13.81
2022-10-13T11:33:19.205Z,13.91
2022-10-13T11:34:19.207Z,14.05
2022-10-13T11:35:19.184Z,13.69
2022-10-13T11:36:19.197Z,13.76
2022-10-13T11:37:19.165Z,13.62
2022-10-13T11:38:19.153Z,13.50
2022-10-13T11:39:19.184Z,13.61
2022-10-13T11:40:19.198Z,13.50
2022-10-13T11:41:19.119Z,13.61
2022-10-13T11:42:19.596Z,13.53
2022-10-13T11:43:19.099Z,13.63
2022-10-13T11:44:19.210Z,14.09
2022-10-13T11:45:19.083Z,14.26
2022-10-13T11:46:19.121Z,14.52
2022-10-13T11:47:19.405Z,14.64
2022-10-13T11:48:19.042Z,15.01
2022-10-13T11:49:19.039Z,15.16
2022-10-13T11:50:19.022Z,14.87
2022-10-13T11:51:19.016Z,14.80
2022-10-13T11:52:19.394Z,14.69
2022-10-13T11:53:18.990Z,14.69
2022-10-13T11:54:18.975Z,14.61
2022-10-13T11:55:18.966Z,14.69
2022-10-13T11:56:18.956Z,14.49
2022-10-13T11:57:18.949Z,14.66
2022-10-13T11:58:19.145Z,14.45
2022-10-13T11:59:18.925Z,14.48
2022-10-13T12:00:18.938Z,14.60
2022-10-13T12:01:18.901Z,14.67
2022-10-13T12:02:19.579Z,14.59
2022-10-13T12:03:18.950Z,14.59
2022-10-13T12:04:19.022Z,14.83
2022-10-13T12:05:18.864Z,14.97
2022-10-13T12:06:18.843Z,14.98
2022-10-13T12:07:18.839Z,14.90
2022-10-13T12:08:18.822Z,14.74
2022-10-13T12:09:18.813Z,14.95
2022-10-13T12:10:18.906Z,15.13
2022-10-13T12:11:18.791Z,15.20
2022-10-13T12:12:19.256Z,15.11
2022-10-13T12:13:18.766Z,15.07
2022-10-13T12:14:18.760Z,15.16
2022-10-13T12:15:18.756Z,15.07
2022-10-13T12:16:18.774Z,15.09
2022-10-13T12:17:23.212Z,15.13
2022-10-13T12:18:19.726Z,15.07
2022-10-13T12:19:18.701Z,14.97
2022-10-13T12:20:18.692Z,14.97
2022-10-13T12:21:18.683Z,15.00
2022-10-13T12:22:18.670Z,14.75
2022-10-13T12:23:18.699Z,14.87
2022-10-13T12:24:18.657Z,14.83
2022-10-13T12:25:18.638Z,14.75
2022-10-13T12:26:18.626Z,14.66
2022-10-13T12:27:18.994Z,14.64
2022-10-13T12:28:18.670Z,14.60
2022-10-13T12:29:18.711Z,14.64
2022-10-13T12:30:18.585Z,14.46
2022-10-13T12:31:18.572Z,14.35
2022-10-13T12:32:18.667Z,14.35
2022-10-13T12:33:18.550Z,14.45
2022-10-13T12:34:18.750Z,14.45
2022-10-13T12:35:18.541Z,14.49
2022-10-13T12:36:18.552Z,14.23
2022-10-13T12:37:18.718Z,14.12
2022-10-13T12:38:18.497Z,14.24
2022-10-13T12:39:18.480Z,14.21
2022-10-13T12:40:18.473Z,14.38
2022-10-13T12:41:18.479Z,14.20
2022-10-13T12:42:18.541Z,14.23
2022-10-13T12:43:18.453Z,14.17
2022-10-13T12:44:18.431Z,14.27
2022-10-13T12:45:18.436Z,14.31
2022-10-13T12:46:18.409Z,14.19
2022-10-13T12:47:18.635Z,14.09
2022-10-13T12:48:18.491Z,14.11
2022-10-13T12:49:18.372Z,14.19
2022-10-13T12:50:18.364Z,14.12
2022-10-13T12:51:18.369Z,14.09
2022-10-13T12:52:18.704Z,14.01
2022-10-13T12:53:18.355Z,13.96
2022-10-13T12:54:18.354Z,13.98
2022-10-13T12:55:18.329Z,13.96
2022-10-13T12:56:18.299Z,13.96
2022-10-13T12:57:18.289Z,14.04
2022-10-13T12:58:18.278Z,13.99
2022-10-13T12:59:18.278Z,13.94
2022-10-13T13:00:18.263Z,14.01
2022-10-13T13:01:18.302Z,13.83
2022-10-13T13:02:18.465Z,13.88
2022-10-13T13:03:18.224Z,13.93
2022-10-13T13:04:18.389Z,13.94
2022-10-13T13:05:18.205Z,13.86
2022-10-13T13:06:18.191Z,13.79
2022-10-13T13:07:18.182Z,13.94
2022-10-13T13:08:18.172Z,13.98
2022-10-13T13:09:18.167Z,14.08
2022-10-13T13:10:18.146Z,14.06